Jasper, TX

11:04 AM CST on November 28, 2014 (GMT -0600)
North Jasper | Change Station
CLOSE
Current Station
Personal Weather Station
Location: Jasper, TX
Elevation: 308 ft
Nearby Weather Stations

Elev 308 ft 30.93 °N, 94.00 °W | Updated 6 minutes ago

Clear
Clear
59.3 °F
Feels Like 59.3 °F
N
4.0
Wind Variable Wind from SE
Gusts 7.0 mph

Today
High -- | Low -- °F
--% Chance of Precip.
Yesterday
High -- | Low -- °F
Precip. -- in
6:53 AM 5:14 PM
Waxing Crescent, 42% visible
Pressure 30.38 in
Visibility 10.0 miles
Clouds Clear
Dew Point 46 °F
Humidity 61%
Rainfall 0.00 in
Snow Depth Not available.
UV 4 out of 12
Pollen 3.60 out of 12
Air Quality Not available.
Flu Activity Not available.
METAR KJAS 281635Z AUTO 15003KT 10SM CLR 13/06 A3038 RMK AO2 T01310060

More Conditions Fewer Conditions

Pressure 30.38 in
Visibility 10.0 miles
Clouds Clear
Dew Point 46 °F
Humidity 61%
Rainfall 0.00 in
Snow Depth Not available.
UV 4 out of 12
Pollen 3.60 out of 12
Air Quality Not available.
Flu Activity Not available.
METAR KJAS 281635Z AUTO 15003KT 10SM CLR 13/06 A3038 RMK AO2 T01310060

More Conditions Fewer Conditions

10-Day Weather Forecast

Almanac

Astronomy

Nov. 28, 2014 Rise Set
Actual Time
Civil Twilight
Nautical Twilight
Astronomical Twilight
Moon
Length of Visible Light
Length of Day
Tomorrow will be .
, % of the Moon is Illuminated

Today's Extremes

State Highs State Lows

Community

WunderPhotos

Upload Photos

1,774,238 photos uploaded!

WunderBlogs® & News

Nearby

Air Quality

  Air Quality AQ Index Pollutant
Not available.

Snow Depth

Station Depth Elevation

Earthquake Activity

City Distance Mag. Time & Date
Minimum magnitude displayed is 2.5.

Coastal Water Temperatures

Place Temperature

Nearby Weather Stations